sensor_id;sensor_type;location;lat;lon;timestamp;pressure;altitude;pressure_sealevel;temperature;humidity
50172;BME280;37125;48.824;2.410;2023-07-13T00:00:26;101003.85;;;28.98;31.75
50172;BME280;37125;48.824;2.410;2023-07-13T00:00:57;101005.16;;;29.00;31.71
50172;BME280;37125;48.824;2.410;2023-07-13T00:01:28;101002.84;;;29.04;31.64
50172;BME280;37125;48.824;2.410;2023-07-13T00:01:59;101003.93;;;29.00;31.71
50172;BME280;37125;48.824;2.410;2023-07-13T00:02:29;101001.41;;;29.03;31.66
50172;BME280;37125;48.824;2.410;2023-07-13T00:03:00;101003.97;;;29.04;31.63
50172;BME280;37125;48.824;2.410;2023-07-13T00:03:30;101004.21;;;29.03;31.65
50172;BME280;37125;48.824;2.410;2023-07-13T00:04:01;101004.37;;;29.03;31.64
50172;BME280;37125;48.824;2.410;2023-07-13T00:04:32;101005.45;;;29.01;31.68
50172;BME280;37125;48.824;2.410;2023-07-13T00:05:03;101003.35;;;29.02;31.65
50172;BME280;37125;48.824;2.410;2023-07-13T00:05:33;101002.76;;;29.02;31.65
50172;BME280;37125;48.824;2.410;2023-07-13T00:06:04;101004.42;;;29.02;31.64
50172;BME280;37125;48.824;2.410;2023-07-13T00:06:35;101003.85;;;29.05;31.59
50172;BME280;37125;48.824;2.410;2023-07-13T00:07:05;101003.40;;;29.08;31.54
50172;BME280;37125;48.824;2.410;2023-07-13T00:07:36;101003.99;;;29.08;31.52
50172;BME280;37125;48.824;2.410;2023-07-13T00:08:07;101003.46;;;29.04;31.60
50172;BME280;37125;48.824;2.410;2023-07-13T00:08:37;101005.67;;;29.01;31.63
50172;BME280;37125;48.824;2.410;2023-07-13T00:09:08;101005.85;;;28.97;31.70
50172;BME280;37125;48.824;2.410;2023-07-13T00:09:38;101005.76;;;28.98;31.68
50172;BME280;37125;48.824;2.410;2023-07-13T00:10:09;101008.60;;;28.94;31.74
50172;BME280;37125;48.824;2.410;2023-07-13T00:10:41;101005.55;;;28.99;31.67
50172;BME280;37125;48.824;2.410;2023-07-13T00:11:11;101004.86;;;29.02;31.61
50172;BME280;37125;48.824;2.410;2023-07-13T00:11:43;101007.70;;;29.01;31.63
50172;BME280;37125;48.824;2.410;2023-07-13T00:12:24;101008.85;;;29.01;31.63
50172;BME280;37125;48.824;2.410;2023-07-13T00:12:55;101006.17;;;29.08;31.52
50172;BME280;37125;48.824;2.410;2023-07-13T00:13:26;101007.47;;;29.05;31.57
50172;BME280;37125;48.824;2.410;2023-07-13T00:13:56;101007.57;;;29.04;31.56
50172;BME280;37125;48.824;2.410;2023-07-13T00:14:28;101008.25;;;29.05;31.54
50172;BME280;37125;48.824;2.410;2023-07-13T00:15:01;101010.49;;;29.05;31.57
50172;BME280;37125;48.824;2.410;2023-07-13T00:15:32;101008.10;;;29.06;31.54
50172;BME280;37125;48.824;2.410;2023-07-13T00:16:03;101005.69;;;29.10;31.48
50172;BME280;37125;48.824;2.410;2023-07-13T00:16:34;101005.63;;;29.07;31.54
50172;BME280;37125;48.824;2.410;2023-07-13T00:17:05;101006.62;;;29.08;31.53
50172;BME280;37125;48.824;2.410;2023-07-13T00:17:35;101005.84;;;29.10;31.48
50172;BME280;37125;48.824;2.410;2023-07-13T00:18:06;101007.01;;;29.08;31.52
50172;BME280;37125;48.824;2.410;2023-07-13T00:18:37;101007.00;;;29.10;31.48
50172;BME280;37125;48.824;2.410;2023-07-13T00:19:07;101006.63;;;29.11;31.45
50172;BME280;37125;48.824;2.410;2023-07-13T00:19:38;101005.55;;;29.11;31.46
50172;BME280;37125;48.824;2.410;2023-07-13T00:20:09;101006.59;;;29.04;31.58
50172;BME280;37125;48.824;2.410;2023-07-13T00:20:39;101003.09;;;29.03;31.61
50172;BME280;37125;48.824;2.410;2023-07-13T00:21:10;101004.41;;;29.03;31.61
50172;BME280;37125;48.824;2.410;2023-07-13T00:21:41;101004.38;;;28.99;31.66
50172;BME280;37125;48.824;2.410;2023-07-13T00:22:12;101004.34;;;29.02;31.61
50172;BME280;37125;48.824;2.410;2023-07-13T00:22:43;101004.76;;;29.06;31.54
50172;BME280;37125;48.824;2.410;2023-07-13T00:23:13;101006.30;;;29.10;31.47
50172;BME280;37125;48.824;2.410;2023-07-13T00:23:44;101003.91;;;29.06;31.52
50172;BME280;37125;48.824;2.410;2023-07-13T00:24:17;101008.22;;;29.05;31.55
50172;BME280;37125;48.824;2.410;2023-07-13T00:24:47;101008.28;;;29.01;31.60
50172;BME280;37125;48.824;2.410;2023-07-13T00:25:18;101008.15;;;29.05;31.57
50172;BME280;37125;48.824;2.410;2023-07-13T00:25:49;101007.48;;;29.02;31.62
50172;BME280;37125;48.824;2.410;2023-07-13T00:26:20;101006.69;;;29.04;31.58
50172;BME280;37125;48.824;2.410;2023-07-13T00:26:50;101009.15;;;29.00;31.64
50172;BME280;37125;48.824;2.410;2023-07-13T00:27:22;101009.63;;;29.00;31.64
50172;BME280;37125;48.824;2.410;2023-07-13T00:27:53;101007.37;;;29.03;31.58
50172;BME280;37125;48.824;2.410;2023-07-13T00:28:23;101006.85;;;29.04;31.57
50172;BME280;37125;48.824;2.410;2023-07-13T00:28:54;101007.33;;;29.03;31.58
50172;BME280;37125;48.824;2.410;2023-07-13T00:29:26;101006.34;;;29.07;31.52
50172;BME280;37125;48.824;2.410;2023-07-13T00:29:56;101006.98;;;29.04;31.57
50172;BME280;37125;48.824;2.410;2023-07-13T00:30:27;101012.09;;;28.92;31.71
50172;BME280;37125;48.824;2.410;2023-07-13T00:30:58;101011.83;;;28.99;31.62
50172;BME280;37125;48.824;2.410;2023-07-13T00:31:28;101007.56;;;29.02;31.56
50172;BME280;37125;48.824;2.410;2023-07-13T00:31:59;101007.75;;;29.04;31.52
50172;BME280;37125;48.824;2.410;2023-07-13T00:32:29;101007.43;;;29.05;31.49
50172;BME280;37125;48.824;2.410;2023-07-13T00:33:00;101007.33;;;29.01;31.56
50172;BME280;37125;48.824;2.410;2023-07-13T00:33:30;101013.08;;;29.01;31.59
50172;BME280;37125;48.824;2.410;2023-07-13T00:34:01;101012.38;;;28.98;31.63
50172;BME280;37125;48.824;2.410;2023-07-13T00:34:32;101011.19;;;29.00;31.61
50172;BME280;37125;48.824;2.410;2023-07-13T00:35:04;101007.48;;;29.01;31.59
50172;BME280;37125;48.824;2.410;2023-07-13T00:35:34;101008.29;;;29.01;31.59
50172;BME280;37125;48.824;2.410;2023-07-13T00:36:05;101006.60;;;29.01;31.57
50172;BME280;37125;48.824;2.410;2023-07-13T00:36:36;101008.41;;;29.00;31.58
50172;BME280;37125;48.824;2.410;2023-07-13T00:37:07;101006.54;;;29.01;31.56
50172;BME280;37125;48.824;2.410;2023-07-13T00:37:37;101006.87;;;29.03;31.53
50172;BME280;37125;48.824;2.410;2023-07-13T00:38:08;101006.16;;;29.03;31.52
50172;BME280;37125;48.824;2.410;2023-07-13T00:38:39;101005.80;;;29.10;31.42
50172;BME280;37125;48.824;2.410;2023-07-13T00:39:09;101007.07;;;29.11;31.40
50172;BME280;37125;48.824;2.410;2023-07-13T00:39:40;101008.60;;;29.05;31.48
50172;BME280;37125;48.824;2.410;2023-07-13T00:40:12;101009.64;;;29.08;31.45
50172;BME280;37125;48.824;2.410;2023-07-13T00:40:43;101008.83;;;29.07;31.47
50172;BME280;37125;48.824;2.410;2023-07-13T00:41:14;101011.08;;;29.07;31.47
50172;BME280;37125;48.824;2.410;2023-07-13T00:41:45;101010.42;;;29.07;31.47
50172;BME280;37125;48.824;2.410;2023-07-13T00:42:15;101011.30;;;29.04;31.51
50172;BME280;37125;48.824;2.410;2023-07-13T00:42:46;101011.73;;;29.03;31.51
50172;BME280;37125;48.824;2.410;2023-07-13T00:43:18;101015.88;;;29.03;31.53
50172;BME280;37125;48.824;2.410;2023-07-13T00:43:49;101015.52;;;29.04;31.50
50172;BME280;37125;48.824;2.410;2023-07-13T00:44:20;101016.19;;;29.04;31.47
50172;BME280;37125;48.824;2.410;2023-07-13T00:46:10;101019.59;;;29.02;31.51
50172;BME280;37125;48.824;2.410;2023-07-13T00:46:42;101021.26;;;29.05;31.45
50172;BME280;37125;48.824;2.410;2023-07-13T00:47:12;101022.72;;;29.04;31.48
50172;BME280;37125;48.824;2.410;2023-07-13T00:47:43;101021.72;;;29.06;31.42
50172;BME280;37125;48.824;2.410;2023-07-13T00:48:17;101020.70;;;29.08;31.41
50172;BME280;37125;48.824;2.410;2023-07-13T00:48:50;101022.56;;;29.06;31.43
50172;BME280;37125;48.824;2.410;2023-07-13T00:49:22;101022.72;;;29.05;31.45
50172;BME280;37125;48.824;2.410;2023-07-13T00:49:54;101024.34;;;29.03;31.50
50172;BME280;37125;48.824;2.410;2023-07-13T00:50:25;101025.31;;;29.05;31.47
50172;BME280;37125;48.824;2.410;2023-07-13T00:50:58;101023.00;;;29.05;31.47
50172;BME280;37125;48.824;2.410;2023-07-13T00:51:34;101025.35;;;29.01;31.53
50172;BME280;37125;48.824;2.410;2023-07-13T00:52:08;101025.23;;;29.03;31.50
50172;BME280;37125;48.824;2.410;2023-07-13T00:52:41;101025.69;;;29.08;31.44
50172;BME280;37125;48.824;2.410;2023-07-13T00:53:13;101026.37;;;29.06;31.47
50172;BME280;37125;48.824;2.410;2023-07-13T00:53:44;101024.92;;;29.05;31.50
50172;BME280;37125;48.824;2.410;2023-07-13T00:54:18;101025.54;;;29.02;31.53
50172;BME280;37125;48.824;2.410;2023-07-13T00:54:49;101029.00;;;29.06;31.49
50172;BME280;37125;48.824;2.410;2023-07-13T00:55:21;101026.39;;;29.06;31.48
50172;BME280;37125;48.824;2.410;2023-07-13T00:55:53;101028.24;;;29.02;31.54
50172;BME280;37125;48.824;2.410;2023-07-13T00:56:26;101026.27;;;29.02;31.56
50172;BME280;37125;48.824;2.410;2023-07-13T00:57:00;101029.19;;;29.02;31.56
50172;BME280;37125;48.824;2.410;2023-07-13T00:57:31;101030.57;;;29.00;31.60
50172;BME280;37125;48.824;2.410;2023-07-13T00:58:02;101030.30;;;28.95;31.68
50172;BME280;37125;48.824;2.410;2023-07-13T00:58:33;101028.73;;;28.98;31.65
50172;BME280;37125;48.824;2.410;2023-07-13T00:59:06;101031.38;;;28.98;31.64
50172;BME280;37125;48.824;2.410;2023-07-13T00:59:41;101030.87;;;28.98;31.65
50172;BME280;37125;48.824;2.410;2023-07-13T01:00:13;101030.25;;;29.04;31.56
50172;BME280;37125;48.824;2.410;2023-07-13T01:00:44;101030.01;;;29.06;31.52
50172;BME280;37125;48.824;2.410;2023-07-13T01:01:17;101032.65;;;29.00;31.63
50172;BME280;37125;48.824;2.410;2023-07-13T01:01:48;101032.26;;;28.98;31.67
50172;BME280;37125;48.824;2.410;2023-07-13T01:02:19;101032.81;;;29.04;31.58
50172;BME280;37125;48.824;2.410;2023-07-13T01:02:50;101030.63;;;29.04;31.58
50172;BME280;37125;48.824;2.410;2023-07-13T01:03:21;101031.19;;;29.02;31.62
50172;BME280;37125;48.824;2.410;2023-07-13T01:03:51;101030.37;;;29.01;31.63
50172;BME280;37125;48.824;2.410;2023-07-13T01:04:24;101031.23;;;28.95;31.71
50172;BME280;37125;48.824;2.410;2023-07-13T01:04:56;101029.55;;;28.98;31.66
50172;BME280;37125;48.824;2.410;2023-07-13T01:05:27;101030.10;;;29.03;31.59
50172;BME280;37125;48.824;2.410;2023-07-13T01:05:58;101031.59;;;29.06;31.54
50172;BME280;37125;48.824;2.410;2023-07-13T01:06:28;101030.35;;;29.07;31.55
50172;BME280;37125;48.824;2.410;2023-07-13T01:07:00;101036.02;;;29.06;31.55
50172;BME280;37125;48.824;2.410;2023-07-13T01:07:30;101033.23;;;29.07;31.54
50172;BME280;37125;48.824;2.410;2023-07-13T01:08:02;101033.23;;;29.00;31.66
50172;BME280;37125;48.824;2.410;2023-07-13T01:08:33;101034.31;;;29.01;31.66
50172;BME280;37125;48.824;2.410;2023-07-13T01:09:04;101035.30;;;29.01;31.67
50172;BME280;37125;48.824;2.410;2023-07-13T01:09:36;101035.22;;;29.01;31.66
50172;BME280;37125;48.824;2.410;2023-07-13T01:10:08;101034.80;;;28.98;31.70
50172;BME280;37125;48.824;2.410;2023-07-13T01:10:39;101033.73;;;29.06;31.58
50172;BME280;37125;48.824;2.410;2023-07-13T01:11:09;101034.41;;;29.04;31.61
50172;BME280;37125;48.824;2.410;2023-07-13T01:11:40;101033.03;;;29.05;31.60
50172;BME280;37125;48.824;2.410;2023-07-13T01:12:11;101032.34;;;29.09;31.55
50172;BME280;37125;48.824;2.410;2023-07-13T01:12:42;101033.08;;;29.09;31.57
50172;BME280;37125;48.824;2.410;2023-07-13T01:13:13;101033.42;;;29.09;31.57
50172;BME280;37125;48.824;2.410;2023-07-13T01:13:43;101031.83;;;29.09;31.58
50172;BME280;37125;48.824;2.410;2023-07-13T01:14:14;101036.31;;;29.07;31.59
50172;BME280;37125;48.824;2.410;2023-07-13T01:14:45;101034.19;;;29.08;31.58
50172;BME280;37125;48.824;2.410;2023-07-13T01:15:50;101035.71;;;29.10;31.57
50172;BME280;37125;48.824;2.410;2023-07-13T01:16:25;101036.43;;;29.10;31.58
50172;BME280;37125;48.824;2.410;2023-07-13T01:16:56;101035.94;;;28.94;31.79
50172;BME280;37125;48.824;2.410;2023-07-13T01:17:28;101036.56;;;29.01;31.67
50172;BME280;37125;48.824;2.410;2023-07-13T01:17:59;101038.60;;;29.00;31.64
50172;BME280;37125;48.824;2.410;2023-07-13T01:18:30;101039.01;;;28.99;31.59
50172;BME280;37125;48.824;2.410;2023-07-13T01:19:03;101033.78;;;28.81;31.84
50172;BME280;37125;48.824;2.410;2023-07-13T01:19:40;101036.55;;;28.85;31.75
50172;BME280;37125;48.824;2.410;2023-07-13T01:20:11;101038.98;;;28.90;31.69
50172;BME280;37125;48.824;2.410;2023-07-13T01:20:50;101037.22;;;28.92;31.65
50172;BME280;37125;48.824;2.410;2023-07-13T01:21:21;101035.04;;;28.77;31.83
50172;BME280;37125;48.824;2.410;2023-07-13T01:21:52;101037.21;;;28.86;31.68
50172;BME280;37125;48.824;2.410;2023-07-13T01:22:23;101036.06;;;28.72;31.85
50172;BME280;37125;48.824;2.410;2023-07-13T01:22:54;101036.42;;;28.69;31.89
50172;BME280;37125;48.824;2.410;2023-07-13T01:23:25;101037.86;;;28.64;31.90
50172;BME280;37125;48.824;2.410;2023-07-13T01:23:56;101039.62;;;28.77;31.68
50172;BME280;37125;48.824;2.410;2023-07-13T01:24:27;101042.49;;;28.84;31.52
50172;BME280;37125;48.824;2.410;2023-07-13T01:24:57;101040.88;;;28.75;31.66
50172;BME280;37125;48.824;2.410;2023-07-13T01:25:28;101042.63;;;28.82;31.58
50172;BME280;37125;48.824;2.410;2023-07-13T01:25:59;101040.50;;;28.68;31.76
50172;BME280;37125;48.824;2.410;2023-07-13T01:26:30;101042.12;;;28.63;31.82
50172;BME280;37125;48.824;2.410;2023-07-13T01:27:00;101043.33;;;28.59;31.86
50172;BME280;37125;48.824;2.410;2023-07-13T01:27:31;101041.90;;;28.55;31.93
50172;BME280;37125;48.824;2.410;2023-07-13T01:28:01;101042.57;;;28.53;31.91
50172;BME280;37125;48.824;2.410;2023-07-13T01:28:32;101041.43;;;28.46;31.98
50172;BME280;37125;48.824;2.410;2023-07-13T01:29:03;101039.31;;;28.37;32.12
50172;BME280;37125;48.824;2.410;2023-07-13T01:29:36;101039.62;;;28.34;32.17
50172;BME280;37125;48.824;2.410;2023-07-13T01:30:07;101040.98;;;28.45;31.99
50172;BME280;37125;48.824;2.410;2023-07-13T01:30:40;101040.70;;;28.53;31.85
50172;BME280;37125;48.824;2.410;2023-07-13T01:31:12;101040.28;;;28.67;31.67
50172;BME280;37125;48.824;2.410;2023-07-13T01:31:42;101039.46;;;28.70;31.60
50172;BME280;37125;48.824;2.410;2023-07-13T01:32:15;101041.05;;;28.74;31.51
50172;BME280;37125;48.824;2.410;2023-07-13T01:32:46;101040.62;;;28.77;31.49
50172;BME280;37125;48.824;2.410;2023-07-13T01:33:17;101040.61;;;28.76;31.49
50172;BME280;37125;48.824;2.410;2023-07-13T01:33:48;101040.51;;;28.52;31.85
50172;BME280;37125;48.824;2.410;2023-07-13T01:34:19;101037.96;;;28.44;31.97
50172;BME280;37125;48.824;2.410;2023-07-13T01:34:50;101039.63;;;28.59;31.74
50172;BME280;37125;48.824;2.410;2023-07-13T01:35:21;101040.95;;;28.66;31.62
50172;BME280;37125;48.824;2.410;2023-07-13T01:35:51;101039.24;;;28.74;31.48
50172;BME280;37125;48.824;2.410;2023-07-13T01:36:22;101040.12;;;28.69;31.52
50172;BME280;37125;48.824;2.410;2023-07-13T01:36:53;101041.51;;;28.65;31.58
50172;BME280;37125;48.824;2.410;2023-07-13T01:37:25;101040.66;;;28.47;31.83
50172;BME280;37125;48.824;2.410;2023-07-13T01:37:56;101042.11;;;28.53;31.73
50172;BME280;37125;48.824;2.410;2023-07-13T01:38:27;101041.84;;;28.42;31.89
50172;BME280;37125;48.824;2.410;2023-07-13T01:38:57;101041.04;;;28.49;31.77
50172;BME280;37125;48.824;2.410;2023-07-13T01:39:28;101039.75;;;28.38;31.95
50172;BME280;37125;48.824;2.410;2023-07-13T01:39:58;101039.53;;;28.38;31.97
50172;BME280;37125;48.824;2.410;2023-07-13T01:40:29;101037.46;;;28.32;32.04
50172;BME280;37125;48.824;2.410;2023-07-13T01:41:00;101037.32;;;28.38;31.96
50172;BME280;37125;48.824;2.410;2023-07-13T01:41:31;101040.27;;;28.47;31.83
50172;BME280;37125;48.824;2.410;2023-07-13T01:42:01;101039.53;;;28.50;31.80
50172;BME280;37125;48.824;2.410;2023-07-13T01:42:32;101041.47;;;28.60;31.65
50172;BME280;37125;48.824;2.410;2023-07-13T01:43:03;101038.48;;;28.37;31.98
50172;BME280;37125;48.824;2.410;2023-07-13T01:43:34;101037.88;;;28.45;31.83
50172;BME280;37125;48.824;2.410;2023-07-13T01:44:04;101037.70;;;28.50;31.76
50172;BME280;37125;48.824;2.410;2023-07-13T01:44:35;101038.11;;;28.29;32.03
50172;BME280;37125;48.824;2.410;2023-07-13T01:45:07;101038.87;;;28.49;31.75
50172;BME280;37125;48.824;2.410;2023-07-13T01:45:37;101040.51;;;28.54;31.64
50172;BME280;37125;48.824;2.410;2023-07-13T01:46:08;101039.19;;;28.39;31.85
50172;BME280;37125;48.824;2.410;2023-07-13T01:46:39;101036.59;;;28.39;31.84
50172;BME280;37125;48.824;2.410;2023-07-13T01:47:10;101039.73;;;28.44;31.77
50172;BME280;37125;48.824;2.410;2023-07-13T01:47:41;101040.79;;;28.50;31.67
50172;BME280;37125;48.824;2.410;2023-07-13T01:48:12;101041.22;;;28.47;31.69
50172;BME280;37125;48.824;2.410;2023-07-13T01:48:43;101041.66;;;28.32;31.91
50172;BME280;37125;48.824;2.410;2023-07-13T01:49:13;101041.64;;;28.48;31.68
50172;BME280;37125;48.824;2.410;2023-07-13T01:49:44;101045.52;;;28.49;31.63
50172;BME280;37125;48.824;2.410;2023-07-13T01:50:15;101045.34;;;28.56;31.52
50172;BME280;37125;48.824;2.410;2023-07-13T01:50:46;101042.71;;;28.41;31.75
50172;BME280;37125;48.824;2.410;2023-07-13T01:51:19;101045.45;;;28.44;31.71
50172;BME280;37125;48.824;2.410;2023-07-13T01:51:49;101047.26;;;28.54;31.50
50172;BME280;37125;48.824;2.410;2023-07-13T01:52:20;101043.48;;;28.48;31.51
50172;BME280;37125;48.824;2.410;2023-07-13T01:52:51;101049.48;;;28.54;31.37
50172;BME280;37125;48.824;2.410;2023-07-13T01:53:21;101049.65;;;28.47;31.39
50172;BME280;37125;48.824;2.410;2023-07-13T01:53:52;101045.65;;;28.32;31.57
50172;BME280;37125;48.824;2.410;2023-07-13T01:54:23;101048.79;;;28.43;31.34
50172;BME280;37125;48.824;2.410;2023-07-13T01:54:53;101049.86;;;28.56;31.10
50172;BME280;37125;48.824;2.410;2023-07-13T01:55:24;101051.28;;;28.45;31.25
50172;BME280;37125;48.824;2.410;2023-07-13T01:55:55;101050.80;;;28.54;31.06
50172;BME280;37125;48.824;2.410;2023-07-13T01:56:25;101049.19;;;28.61;30.86
50172;BME280;37125;48.824;2.410;2023-07-13T01:56:56;101048.31;;;28.55;30.94
50172;BME280;37125;48.824;2.410;2023-07-13T01:57:26;101048.04;;;28.54;30.89
50172;BME280;37125;48.824;2.410;2023-07-13T01:57:57;101046.60;;;28.32;31.14
50172;BME280;37125;48.824;2.410;2023-07-13T01:58:28;101047.21;;;28.41;31.01
50172;BME280;37125;48.824;2.410;2023-07-13T01:58:58;101046.38;;;28.41;31.01
50172;BME280;37125;48.824;2.410;2023-07-13T01:59:29;101049.26;;;28.29;31.17
50172;BME280;37125;48.824;2.410;2023-07-13T02:00:02;101047.55;;;28.38;31.00
50172;BME280;37125;48.824;2.410;2023-07-13T02:00:33;101049.20;;;28.46;30.87
50172;BME280;37125;48.824;2.410;2023-07-13T02:01:03;101051.19;;;28.31;31.06
50172;BME280;37125;48.824;2.410;2023-07-13T02:01:34;101048.40;;;28.29;31.08
50172;BME280;37125;48.824;2.410;2023-07-13T02:02:05;101049.70;;;28.22;31.14
50172;BME280;37125;48.824;2.410;2023-07-13T02:02:35;101048.30;;;28.17;31.16
50172;BME280;37125;48.824;2.410;2023-07-13T02:03:06;101050.72;;;28.14;31.22
50172;BME280;37125;48.824;2.410;2023-07-13T02:03:37;101048.61;;;28.19;31.14
50172;BME280;37125;48.824;2.410;2023-07-13T02:04:07;101053.20;;;28.25;31.06
50172;BME280;37125;48.824;2.410;2023-07-13T02:04:38;101050.70;;;28.21;31.06
50172;BME280;37125;48.824;2.410;2023-07-13T02:05:09;101050.37;;;28.14;31.22
50172;BME280;37125;48.824;2.410;2023-07-13T02:05:39;101049.64;;;28.19;31.04
50172;BME280;37125;48.824;2.410;2023-07-13T02:06:10;101050.30;;;28.27;30.93
50172;BME280;37125;48.824;2.410;2023-07-13T02:06:40;101051.10;;;28.35;30.79
50172;BME280;37125;48.824;2.410;2023-07-13T02:07:11;101049.25;;;28.29;30.83
50172;BME280;37125;48.824;2.410;2023-07-13T02:07:42;101050.13;;;28.31;30.83
50172;BME280;37125;48.824;2.410;2023-07-13T02:08:13;101050.80;;;28.39;30.62
50172;BME280;37125;48.824;2.410;2023-07-13T02:08:43;101052.32;;;28.26;30.83
50172;BME280;37125;48.824;2.410;2023-07-13T02:09:14;101052.78;;;28.30;30.74
50172;BME280;37125;48.824;2.410;2023-07-13T02:09:44;101052.84;;;28.32;30.72
50172;BME280;37125;48.824;2.410;2023-07-13T02:10:16;101052.16;;;28.14;31.04
50172;BME280;37125;48.824;2.410;2023-07-13T02:10:47;101051.41;;;28.14;30.98
50172;BME280;37125;48.824;2.410;2023-07-13T02:11:17;101053.32;;;28.10;31.05
50172;BME280;37125;48.824;2.410;2023-07-13T02:11:48;101051.98;;;28.13;30.94
50172;BME280;37125;48.824;2.410;2023-07-13T02:12:19;101052.26;;;28.25;30.79
50172;BME280;37125;48.824;2.410;2023-07-13T02:12:50;101053.05;;;28.35;30.59
50172;BME280;37125;48.824;2.410;2023-07-13T02:13:21;101052.75;;;28.31;30.65
50172;BME280;37125;48.824;2.410;2023-07-13T02:13:52;101049.46;;;28.36;30.57
50172;BME280;37125;48.824;2.410;2023-07-13T02:14:22;101050.61;;;28.29;30.65
50172;BME280;37125;48.824;2.410;2023-07-13T02:14:53;101049.16;;;28.09;30.96
50172;BME280;37125;48.824;2.410;2023-07-13T02:15:23;101051.76;;;28.21;30.80
50172;BME280;37125;48.824;2.410;2023-07-13T02:15:54;101048.58;;;28.33;30.63
50172;BME280;37125;48.824;2.410;2023-07-13T02:16:25;101048.17;;;28.25;30.74
50172;BME280;37125;48.824;2.410;2023-07-13T02:16:55;101049.67;;;28.09;30.99
50172;BME280;37125;48.824;2.410;2023-07-13T02:17:26;101051.50;;;28.04;31.04
50172;BME280;37125;48.824;2.410;2023-07-13T02:17:57;101050.96;;;28.26;30.74
50172;BME280;37125;48.824;2.410;2023-07-13T02:18:28;101049.85;;;28.32;30.61
50172;BME280;37125;48.824;2.410;2023-07-13T02:18:58;101050.28;;;28.15;30.85
50172;BME280;37125;48.824;2.410;2023-07-13T02:19:29;101049.73;;;28.09;30.93
50172;BME280;37125;48.824;2.410;2023-07-13T02:19:59;101049.35;;;28.22;30.79
50172;BME280;37125;48.824;2.410;2023-07-13T02:20:30;101050.84;;;28.31;30.59
50172;BME280;37125;48.824;2.410;2023-07-13T02:21:01;101051.25;;;28.20;30.71
50172;BME280;37125;48.824;2.410;2023-07-13T02:21:31;101051.27;;;28.25;30.64
50172;BME280;37125;48.824;2.410;2023-07-13T02:22:02;101050.77;;;28.19;30.72
50172;BME280;37125;48.824;2.410;2023-07-13T02:22:33;101054.00;;;28.32;30.52
50172;BME280;37125;48.824;2.410;2023-07-13T02:23:04;101052.22;;;28.20;30.64
50172;BME280;37125;48.824;2.410;2023-07-13T02:23:34;101051.40;;;28.17;30.66
50172;BME280;37125;48.824;2.410;2023-07-13T02:24:05;101051.76;;;28.28;30.51
50172;BME280;37125;48.824;2.410;2023-07-13T02:24:36;101053.07;;;28.24;30.54
50172;BME280;37125;48.824;2.410;2023-07-13T02:25:07;101050.33;;;28.09;30.78
50172;BME280;37125;48.824;2.410;2023-07-13T02:25:38;101050.17;;;28.30;30.51
50172;BME280;37125;48.824;2.410;2023-07-13T02:26:08;101050.51;;;28.38;30.30
50172;BME280;37125;48.824;2.410;2023-07-13T02:26:39;101052.36;;;28.24;30.42
50172;BME280;37125;48.824;2.410;2023-07-13T02:27:09;101052.03;;;28.31;30.31
50172;BME280;37125;48.824;2.410;2023-07-13T02:27:40;101050.30;;;28.12;30.62
50172;BME280;37125;48.824;2.410;2023-07-13T02:28:10;101050.46;;;28.06;30.67
50172;BME280;37125;48.824;2.410;2023-07-13T02:28:41;101051.43;;;28.23;30.45
50172;BME280;37125;48.824;2.410;2023-07-13T02:29:12;101052.97;;;28.27;30.38
50172;BME280;37125;48.824;2.410;2023-07-13T02:29:42;101051.51;;;28.33;30.31
50172;BME280;37125;48.824;2.410;2023-07-13T02:30:14;101047.40;;;28.11;30.60
50172;BME280;37125;48.824;2.410;2023-07-13T02:30:44;101046.87;;;28.09;30.65
50172;BME280;37125;48.824;2.410;2023-07-13T02:31:16;101045.99;;;28.20;30.47
50172;BME280;37125;48.824;2.410;2023-07-13T02:31:46;101045.14;;;28.10;30.57
50172;BME280;37125;48.824;2.410;2023-07-13T02:32:17;101045.07;;;28.23;30.37
50172;BME280;37125;48.824;2.410;2023-07-13T02:32:48;101043.00;;;28.24;30.36
50172;BME280;37125;48.824;2.410;2023-07-13T02:33:19;101041.28;;;28.30;30.27
50172;BME280;37125;48.824;2.410;2023-07-13T02:33:49;101040.91;;;28.28;30.29
50172;BME280;37125;48.824;2.410;2023-07-13T02:34:20;101039.10;;;28.23;30.36
50172;BME280;37125;48.824;2.410;2023-07-13T02:34:51;101041.63;;;28.25;30.34
50172;BME280;37125;48.824;2.410;2023-07-13T02:35:22;101040.62;;;28.29;30.30
50172;BME280;37125;48.824;2.410;2023-07-13T02:35:53;101041.90;;;28.31;30.23
50172;BME280;37125;48.824;2.410;2023-07-13T02:36:24;101039.60;;;28.10;30.51
50172;BME280;37125;48.824;2.410;2023-07-13T02:36:54;101038.84;;;28.13;30.45
50172;BME280;37125;48.824;2.410;2023-07-13T02:37:25;101038.70;;;28.16;30.41
50172;BME280;37125;48.824;2.410;2023-07-13T02:37:55;101037.48;;;28.31;30.19
50172;BME280;37125;48.824;2.410;2023-07-13T02:38:26;101040.56;;;28.29;30.18
50172;BME280;37125;48.824;2.410;2023-07-13T02:38:57;101040.42;;;28.08;30.48
50172;BME280;37125;48.824;2.410;2023-07-13T02:39:28;101041.22;;;28.23;30.32
50172;BME280;37125;48.824;2.410;2023-07-13T02:39:59;101042.02;;;28.24;30.29
50172;BME280;37125;48.824;2.410;2023-07-13T02:40:29;101041.54;;;28.30;30.19
50172;BME280;37125;48.824;2.410;2023-07-13T02:41:00;101042.62;;;28.15;30.38
50172;BME280;37125;48.824;2.410;2023-07-13T02:41:31;101038.98;;;28.17;30.36
50172;BME280;37125;48.824;2.410;2023-07-13T02:42:02;101038.87;;;28.28;30.20
50172;BME280;37125;48.824;2.410;2023-07-13T02:42:32;101039.20;;;28.19;30.25
50172;BME280;37125;48.824;2.410;2023-07-13T02:43:03;101040.88;;;28.23;30.24
50172;BME280;37125;48.824;2.410;2023-07-13T02:43:34;101038.97;;;28.18;30.25
50172;BME280;37125;48.824;2.410;2023-07-13T02:44:04;101040.98;;;28.01;30.50
50172;BME280;37125;48.824;2.410;2023-07-13T02:44:35;101041.09;;;28.15;30.31